sensor_id;sensor_type;location;lat;lon;timestamp;temperature;humidity
70682;SHT31;58261;48.228;11.686;2022-07-29T00:02:56;22.0;60
70682;SHT31;58261;48.228;11.686;2022-07-29T00:06:16;22.0;60
70682;SHT31;58261;48.228;11.686;2022-07-29T00:09:36;22.0;60
70682;SHT31;58261;48.228;11.686;2022-07-29T00:12:56;22.0;60
70682;SHT31;58261;48.228;11.686;2022-07-29T00:16:16;22.0;60
70682;SHT31;58261;48.228;11.686;2022-07-29T00:19:36;21.8;61
70682;SHT31;58261;48.228;11.686;2022-07-29T00:22:56;21.8;61
70682;SHT31;58261;48.228;11.686;2022-07-29T00:26:16;21.8;61
70682;SHT31;58261;48.228;11.686;2022-07-29T00:29:36;21.8;61
70682;SHT31;58261;48.228;11.686;2022-07-29T00:32:56;21.9;61
70682;SHT31;58261;48.228;11.686;2022-07-29T00:36:16;21.9;61
70682;SHT31;58261;48.228;11.686;2022-07-29T00:39:36;21.9;61
70682;SHT31;58261;48.228;11.686;2022-07-29T00:42:56;21.8;62
70682;SHT31;58261;48.228;11.686;2022-07-29T00:46:16;21.8;62
70682;SHT31;58261;48.228;11.686;2022-07-29T00:49:36;21.8;62
70682;SHT31;58261;48.228;11.686;2022-07-29T00:52:56;21.8;62
70682;SHT31;58261;48.228;11.686;2022-07-29T00:56:16;21.8;62
70682;SHT31;58261;48.228;11.686;2022-07-29T00:59:36;21.8;62
70682;SHT31;58261;48.228;11.686;2022-07-29T01:02:56;21.7;63
70682;SHT31;58261;48.228;11.686;2022-07-29T01:06:16;21.7;63
70682;SHT31;58261;48.228;11.686;2022-07-29T01:09:36;21.7;63
70682;SHT31;58261;48.228;11.686;2022-07-29T01:12:57;21.7;63
70682;SHT31;58261;48.228;11.686;2022-07-29T01:16:18;21.7;64
70682;SHT31;58261;48.228;11.686;2022-07-29T01:19:44;21.7;64
70682;SHT31;58261;48.228;11.686;2022-07-29T01:26:22;21.6;64
70682;SHT31;58261;48.228;11.686;2022-07-29T01:29:37;21.6;64
70682;SHT31;58261;48.228;11.686;2022-07-29T01:32:58;21.6;64
70682;SHT31;58261;48.228;11.686;2022-07-29T01:36:17;21.2;65
70682;SHT31;58261;48.228;11.686;2022-07-29T01:39:36;21.2;65
70682;SHT31;58261;48.228;11.686;2022-07-29T01:42:57;21.2;65
70682;SHT31;58261;48.228;11.686;2022-07-29T01:46:17;21.4;65
70682;SHT31;58261;48.228;11.686;2022-07-29T01:49:36;21.4;65
70682;SHT31;58261;48.228;11.686;2022-07-29T01:52:56;21.4;65
70682;SHT31;58261;48.228;11.686;2022-07-29T01:56:16;21.4;65
70682;SHT31;58261;48.228;11.686;2022-07-29T01:59:36;21.4;66
70682;SHT31;58261;48.228;11.686;2022-07-29T02:02:56;21.4;66
70682;SHT31;58261;48.228;11.686;2022-07-29T02:06:17;21.4;66
70682;SHT31;58261;48.228;11.686;2022-07-29T02:09:36;21.5;66
70682;SHT31;58261;48.228;11.686;2022-07-29T02:12:57;21.5;66
70682;SHT31;58261;48.228;11.686;2022-07-29T02:16:16;21.5;66
70682;SHT31;58261;48.228;11.686;2022-07-29T02:19:36;21.4;66
70682;SHT31;58261;48.228;11.686;2022-07-29T02:22:56;21.4;66
70682;SHT31;58261;48.228;11.686;2022-07-29T02:26:16;21.4;66
70682;SHT31;58261;48.228;11.686;2022-07-29T02:29:36;21.3;67
70682;SHT31;58261;48.228;11.686;2022-07-29T02:32:56;21.3;67
70682;SHT31;58261;48.228;11.686;2022-07-29T02:36:16;21.3;67
70682;SHT31;58261;48.228;11.686;2022-07-29T02:39:36;21.3;67
70682;SHT31;58261;48.228;11.686;2022-07-29T02:42:56;21.3;68
70682;SHT31;58261;48.228;11.686;2022-07-29T02:46:17;21.3;68
70682;SHT31;58261;48.228;11.686;2022-07-29T02:49:37;21.3;68
70682;SHT31;58261;48.228;11.686;2022-07-29T02:52:57;21.3;68
70682;SHT31;58261;48.228;11.686;2022-07-29T02:56:16;21.3;68
70682;SHT31;58261;48.228;11.686;2022-07-29T02:59:36;21.3;68
70682;SHT31;58261;48.228;11.686;2022-07-29T03:02:58;21.3;67
70682;SHT31;58261;48.228;11.686;2022-07-29T03:06:17;21.3;67
70682;SHT31;58261;48.228;11.686;2022-07-29T03:09:36;21.3;67
70682;SHT31;58261;48.228;11.686;2022-07-29T03:12:56;21.3;67
70682;SHT31;58261;48.228;11.686;2022-07-29T03:16:17;21.2;67
70682;SHT31;58261;48.228;11.686;2022-07-29T03:19:36;21.2;67
70682;SHT31;58261;48.228;11.686;2022-07-29T03:22:56;21.2;67
70682;SHT31;58261;48.228;11.686;2022-07-29T03:26:16;21.1;68
70682;SHT31;58261;48.228;11.686;2022-07-29T03:29:36;21.1;68
70682;SHT31;58261;48.228;11.686;2022-07-29T03:32:56;21.1;68
70682;SHT31;58261;48.228;11.686;2022-07-29T03:36:16;20.8;68
70682;SHT31;58261;48.228;11.686;2022-07-29T03:39:38;20.8;68
70682;SHT31;58261;48.228;11.686;2022-07-29T03:42:56;20.8;68
70682;SHT31;58261;48.228;11.686;2022-07-29T03:46:16;20.8;68
70682;SHT31;58261;48.228;11.686;2022-07-29T03:49:37;20.8;68
70682;SHT31;58261;48.228;11.686;2022-07-29T03:52:56;20.8;68
70682;SHT31;58261;48.228;11.686;2022-07-29T03:56:16;20.8;68
70682;SHT31;58261;48.228;11.686;2022-07-29T03:59:36;20.8;68
70682;SHT31;58261;48.228;11.686;2022-07-29T04:02:56;20.8;68
70682;SHT31;58261;48.228;11.686;2022-07-29T04:06:16;20.8;68
70682;SHT31;58261;48.228;11.686;2022-07-29T04:09:36;20.8;68
70682;SHT31;58261;48.228;11.686;2022-07-29T04:12:56;20.8;68
70682;SHT31;58261;48.228;11.686;2022-07-29T04:16:16;20.8;68
70682;SHT31;58261;48.228;11.686;2022-07-29T04:19:36;20.7;69
70682;SHT31;58261;48.228;11.686;2022-07-29T04:22:56;20.7;69
70682;SHT31;58261;48.228;11.686;2022-07-29T04:26:16;20.7;69
70682;SHT31;58261;48.228;11.686;2022-07-29T04:29:36;20.8;68
70682;SHT31;58261;48.228;11.686;2022-07-29T04:32:56;20.8;68
70682;SHT31;58261;48.228;11.686;2022-07-29T04:36:16;20.8;68
70682;SHT31;58261;48.228;11.686;2022-07-29T04:39:36;20.8;68
70682;SHT31;58261;48.228;11.686;2022-07-29T04:42:56;20.7;69
70682;SHT31;58261;48.228;11.686;2022-07-29T04:46:16;20.7;69
70682;SHT31;58261;48.228;11.686;2022-07-29T04:49:37;20.7;69
70682;SHT31;58261;48.228;11.686;2022-07-29T04:52:56;20.8;69
70682;SHT31;58261;48.228;11.686;2022-07-29T04:56:16;20.8;69
70682;SHT31;58261;48.228;11.686;2022-07-29T04:59:36;20.8;69
70682;SHT31;58261;48.228;11.686;2022-07-29T05:02:56;20.8;69
70682;SHT31;58261;48.228;11.686;2022-07-29T05:06:16;20.8;69
70682;SHT31;58261;48.228;11.686;2022-07-29T05:09:36;20.8;69
70682;SHT31;58261;48.228;11.686;2022-07-29T05:12:56;20.9;69
70682;SHT31;58261;48.228;11.686;2022-07-29T05:16:16;20.9;69
70682;SHT31;58261;48.228;11.686;2022-07-29T05:19:36;20.9;69
70682;SHT31;58261;48.228;11.686;2022-07-29T05:22:57;20.9;69
70682;SHT31;58261;48.228;11.686;2022-07-29T05:26:16;21.0;67
70682;SHT31;58261;48.228;11.686;2022-07-29T05:29:36;21.0;67
70682;SHT31;58261;48.228;11.686;2022-07-29T05:32:56;21.0;67
70682;SHT31;58261;48.228;11.686;2022-07-29T05:36:16;21.1;65
70682;SHT31;58261;48.228;11.686;2022-07-29T05:39:36;21.1;65
70682;SHT31;58261;48.228;11.686;2022-07-29T05:42:56;21.1;65
70682;SHT31;58261;48.228;11.686;2022-07-29T05:46:16;21.3;65
70682;SHT31;58261;48.228;11.686;2022-07-29T05:49:36;21.3;65
70682;SHT31;58261;48.228;11.686;2022-07-29T05:52:56;21.3;65
70682;SHT31;58261;48.228;11.686;2022-07-29T05:56:16;21.4;67
70682;SHT31;58261;48.228;11.686;2022-07-29T05:59:36;21.4;67
70682;SHT31;58261;48.228;11.686;2022-07-29T06:02:56;21.4;67
70682;SHT31;58261;48.228;11.686;2022-07-29T06:06:16;21.4;67
70682;SHT31;58261;48.228;11.686;2022-07-29T06:09:36;21.5;67
70682;SHT31;58261;48.228;11.686;2022-07-29T06:12:56;21.5;67
70682;SHT31;58261;48.228;11.686;2022-07-29T06:16:16;21.5;67
70682;SHT31;58261;48.228;11.686;2022-07-29T06:19:37;21.6;66
70682;SHT31;58261;48.228;11.686;2022-07-29T06:22:56;21.6;66
70682;SHT31;58261;48.228;11.686;2022-07-29T06:26:16;21.6;66
70682;SHT31;58261;48.228;11.686;2022-07-29T06:29:37;21.6;67
70682;SHT31;58261;48.228;11.686;2022-07-29T06:32:56;21.6;67
70682;SHT31;58261;48.228;11.686;2022-07-29T06:36:16;21.6;67
70682;SHT31;58261;48.228;11.686;2022-07-29T06:39:37;21.6;67
70682;SHT31;58261;48.228;11.686;2022-07-29T06:42:56;21.8;66
70682;SHT31;58261;48.228;11.686;2022-07-29T06:46:17;21.8;66
70682;SHT31;58261;48.228;11.686;2022-07-29T06:49:37;21.8;66
70682;SHT31;58261;48.228;11.686;2022-07-29T06:52:57;21.9;65
70682;SHT31;58261;48.228;11.686;2022-07-29T06:56:17;21.9;65
70682;SHT31;58261;48.228;11.686;2022-07-29T06:59:37;21.9;65
70682;SHT31;58261;48.228;11.686;2022-07-29T07:06:31;23.8;56
70682;SHT31;58261;48.228;11.686;2022-07-29T07:10:13;23.8;56
70682;SHT31;58261;48.228;11.686;2022-07-29T07:13:32;22.1;64
70682;SHT31;58261;48.228;11.686;2022-07-29T07:16:52;22.1;64
70682;SHT31;58261;48.228;11.686;2022-07-29T07:20:12;22.1;64
70682;SHT31;58261;48.228;11.686;2022-07-29T07:23:32;22.2;62
70682;SHT31;58261;48.228;11.686;2022-07-29T07:26:52;22.2;62
70682;SHT31;58261;48.228;11.686;2022-07-29T07:30:13;22.2;62
70682;SHT31;58261;48.228;11.686;2022-07-29T07:33:32;22.2;62
70682;SHT31;58261;48.228;11.686;2022-07-29T07:36:52;22.3;63
70682;SHT31;58261;48.228;11.686;2022-07-29T07:40:13;22.3;63
70682;SHT31;58261;48.228;11.686;2022-07-29T07:43:32;22.3;63
70682;SHT31;58261;48.228;11.686;2022-07-29T07:46:53;22.4;61
70682;SHT31;58261;48.228;11.686;2022-07-29T07:50:13;22.4;61
70682;SHT31;58261;48.228;11.686;2022-07-29T07:53:33;22.4;61
70682;SHT31;58261;48.228;11.686;2022-07-29T07:56:53;22.5;60
70682;SHT31;58261;48.228;11.686;2022-07-29T08:00:13;22.5;60
70682;SHT31;58261;48.228;11.686;2022-07-29T08:03:33;22.5;60
70682;SHT31;58261;48.228;11.686;2022-07-29T08:06:53;22.5;60
70682;SHT31;58261;48.228;11.686;2022-07-29T08:10:13;22.6;61
70682;SHT31;58261;48.228;11.686;2022-07-29T08:13:33;22.6;61
70682;SHT31;58261;48.228;11.686;2022-07-29T08:16:53;22.6;61
70682;SHT31;58261;48.228;11.686;2022-07-29T08:20:13;22.7;60
70682;SHT31;58261;48.228;11.686;2022-07-29T08:23:33;22.7;60
70682;SHT31;58261;48.228;11.686;2022-07-29T08:26:53;22.7;60
70682;SHT31;58261;48.228;11.686;2022-07-29T08:30:13;22.9;58
70682;SHT31;58261;48.228;11.686;2022-07-29T08:33:33;22.9;58
70682;SHT31;58261;48.228;11.686;2022-07-29T08:36:53;22.9;58
70682;SHT31;58261;48.228;11.686;2022-07-29T08:40:13;23.0;57
70682;SHT31;58261;48.228;11.686;2022-07-29T08:43:33;23.0;57
70682;SHT31;58261;48.228;11.686;2022-07-29T08:46:53;23.0;57
70682;SHT31;58261;48.228;11.686;2022-07-29T08:50:13;23.0;57
70682;SHT31;58261;48.228;11.686;2022-07-29T08:53:33;23.1;57
70682;SHT31;58261;48.228;11.686;2022-07-29T08:56:53;23.1;57
70682;SHT31;58261;48.228;11.686;2022-07-29T09:00:13;23.1;57
70682;SHT31;58261;48.228;11.686;2022-07-29T09:03:34;23.4;54
70682;SHT31;58261;48.228;11.686;2022-07-29T09:06:53;23.4;54
70682;SHT31;58261;48.228;11.686;2022-07-29T09:10:13;23.4;54
70682;SHT31;58261;48.228;11.686;2022-07-29T09:13:33;23.6;54
70682;SHT31;58261;48.228;11.686;2022-07-29T09:16:53;23.6;54
70682;SHT31;58261;48.228;11.686;2022-07-29T09:20:13;23.6;54
70682;SHT31;58261;48.228;11.686;2022-07-29T09:23:33;23.8;56
70682;SHT31;58261;48.228;11.686;2022-07-29T09:26:53;23.8;56
70682;SHT31;58261;48.228;11.686;2022-07-29T09:30:13;23.8;56
70682;SHT31;58261;48.228;11.686;2022-07-29T09:33:33;23.8;56
70682;SHT31;58261;48.228;11.686;2022-07-29T09:36:53;24.0;55
70682;SHT31;58261;48.228;11.686;2022-07-29T09:40:14;24.0;55
70682;SHT31;58261;48.228;11.686;2022-07-29T09:43:33;24.0;55
70682;SHT31;58261;48.228;11.686;2022-07-29T09:46:54;24.0;55
70682;SHT31;58261;48.228;11.686;2022-07-29T09:50:13;24.0;55
70682;SHT31;58261;48.228;11.686;2022-07-29T09:53:33;24.0;55
70682;SHT31;58261;48.228;11.686;2022-07-29T09:56:53;24.1;56
70682;SHT31;58261;48.228;11.686;2022-07-29T10:00:14;24.1;56
70682;SHT31;58261;48.228;11.686;2022-07-29T10:03:33;24.1;56
70682;SHT31;58261;48.228;11.686;2022-07-29T10:06:56;24.1;56
70682;SHT31;58261;48.228;11.686;2022-07-29T10:10:18;24.1;56
70682;SHT31;58261;48.228;11.686;2022-07-29T10:13:33;24.1;56
70682;SHT31;58261;48.228;11.686;2022-07-29T10:16:53;24.1;56
70682;SHT31;58261;48.228;11.686;2022-07-29T10:20:13;24.2;56
70682;SHT31;58261;48.228;11.686;2022-07-29T10:23:33;24.2;56
70682;SHT31;58261;48.228;11.686;2022-07-29T10:26:53;24.2;56
70682;SHT31;58261;48.228;11.686;2022-07-29T10:30:13;24.3;55
70682;SHT31;58261;48.228;11.686;2022-07-29T10:33:37;24.3;55
70682;SHT31;58261;48.228;11.686;2022-07-29T10:36:54;24.3;55
70682;SHT31;58261;48.228;11.686;2022-07-29T10:40:15;24.3;56
70682;SHT31;58261;48.228;11.686;2022-07-29T10:43:34;24.3;56
70682;SHT31;58261;48.228;11.686;2022-07-29T10:46:53;24.3;56
70682;SHT31;58261;48.228;11.686;2022-07-29T10:50:13;24.3;56
70682;SHT31;58261;48.228;11.686;2022-07-29T10:56:53;24.3;56
70682;SHT31;58261;48.228;11.686;2022-07-29T11:23:33;24.6;54
70682;SHT31;58261;48.228;11.686;2022-07-29T11:30:13;24.6;54
70682;SHT31;58261;48.228;11.686;2022-07-29T11:33:33;24.6;54
70682;SHT31;58261;48.228;11.686;2022-07-29T11:40:14;24.8;53
70682;SHT31;58261;48.228;11.686;2022-07-29T11:46:53;25.1;50
70682;SHT31;58261;48.228;11.686;2022-07-29T11:50:13;25.1;50
70682;SHT31;58261;48.228;11.686;2022-07-29T11:53:33;25.1;50
70682;SHT31;58261;48.228;11.686;2022-07-29T11:56:53;25.2;48
70682;SHT31;58261;48.228;11.686;2022-07-29T12:00:20;25.2;48
70682;SHT31;58261;48.228;11.686;2022-07-29T12:03:33;25.2;48
70682;SHT31;58261;48.228;11.686;2022-07-29T12:06:53;25.3;46
70682;SHT31;58261;48.228;11.686;2022-07-29T12:10:13;25.3;46
70682;SHT31;58261;48.228;11.686;2022-07-29T12:13:38;25.3;46
70682;SHT31;58261;48.228;11.686;2022-07-29T12:16:53;25.3;46
70682;SHT31;58261;48.228;11.686;2022-07-29T12:20:13;25.3;48
70682;SHT31;58261;48.228;11.686;2022-07-29T12:23:33;25.3;48
70682;SHT31;58261;48.228;11.686;2022-07-29T12:26:54;25.3;48
70682;SHT31;58261;48.228;11.686;2022-07-29T12:30:14;25.3;47
70682;SHT31;58261;48.228;11.686;2022-07-29T12:33:33;25.3;47
70682;SHT31;58261;48.228;11.686;2022-07-29T12:36:53;25.3;47
70682;SHT31;58261;48.228;11.686;2022-07-29T12:40:14;25.4;46
70682;SHT31;58261;48.228;11.686;2022-07-29T12:43:33;25.4;46
70682;SHT31;58261;48.228;11.686;2022-07-29T12:50:14;25.4;46
70682;SHT31;58261;48.228;11.686;2022-07-29T12:53:33;25.4;46
70682;SHT31;58261;48.228;11.686;2022-07-29T12:56:58;25.4;46
70682;SHT31;58261;48.228;11.686;2022-07-29T13:00:13;25.4;46
70682;SHT31;58261;48.228;11.686;2022-07-29T13:10:14;25.4;48
70682;SHT31;58261;48.228;11.686;2022-07-29T13:13:33;25.3;48
70682;SHT31;58261;48.228;11.686;2022-07-29T13:20:13;25.3;48
70682;SHT31;58261;48.228;11.686;2022-07-29T13:23:33;25.3;48
70682;SHT31;58261;48.228;11.686;2022-07-29T13:26:53;25.3;48
70682;SHT31;58261;48.228;11.686;2022-07-29T13:30:13;25.3;48
70682;SHT31;58261;48.228;11.686;2022-07-29T13:33:33;25.3;48
70682;SHT31;58261;48.228;11.686;2022-07-29T13:36:53;25.2;48
70682;SHT31;58261;48.228;11.686;2022-07-29T13:40:13;25.2;48
70682;SHT31;58261;48.228;11.686;2022-07-29T13:43:33;25.2;48
70682;SHT31;58261;48.228;11.686;2022-07-29T13:46:53;25.1;48
70682;SHT31;58261;48.228;11.686;2022-07-29T13:50:13;25.1;48
70682;SHT31;58261;48.228;11.686;2022-07-29T13:53:33;25.1;48
70682;SHT31;58261;48.228;11.686;2022-07-29T13:56:53;25.1;48
70682;SHT31;58261;48.228;11.686;2022-07-29T14:00:13;25.1;48
70682;SHT31;58261;48.228;11.686;2022-07-29T14:03:33;25.1;48
70682;SHT31;58261;48.228;11.686;2022-07-29T14:06:53;25.1;50
70682;SHT31;58261;48.228;11.686;2022-07-29T14:10:13;25.1;50
70682;SHT31;58261;48.228;11.686;2022-07-29T14:13:33;25.1;50
70682;SHT31;58261;48.228;11.686;2022-07-29T14:16:53;25.1;50
70682;SHT31;58261;48.228;11.686;2022-07-29T14:20:13;25.1;50
70682;SHT31;58261;48.228;11.686;2022-07-29T14:23:33;25.1;50
70682;SHT31;58261;48.228;11.686;2022-07-29T14:26:53;25.1;50
70682;SHT31;58261;48.228;11.686;2022-07-29T14:30:13;25.1;50
70682;SHT31;58261;48.228;11.686;2022-07-29T14:33:33;25.1;50
70682;SHT31;58261;48.228;11.686;2022-07-29T14:36:53;25.1;50
70682;SHT31;58261;48.228;11.686;2022-07-29T14:40:13;25.2;48
70682;SHT31;58261;48.228;11.686;2022-07-29T14:43:33;25.2;48
70682;SHT31;58261;48.228;11.686;2022-07-29T14:46:53;25.2;48
70682;SHT31;58261;48.228;11.686;2022-07-29T14:50:13;25.2;48
70682;SHT31;58261;48.228;11.686;2022-07-29T14:53:33;25.2;49
70682;SHT31;58261;48.228;11.686;2022-07-29T14:56:53;25.2;49
70682;SHT31;58261;48.228;11.686;2022-07-29T15:00:13;25.2;49
70682;SHT31;58261;48.228;11.686;2022-07-29T15:03:33;25.2;49
70682;SHT31;58261;48.228;11.686;2022-07-29T15:06:53;25.2;49
70682;SHT31;58261;48.228;11.686;2022-07-29T15:10:13;25.2;49
70682;SHT31;58261;48.228;11.686;2022-07-29T15:13:33;25.0;49
70682;SHT31;58261;48.228;11.686;2022-07-29T15:16:53;25.0;49
70682;SHT31;58261;48.228;11.686;2022-07-29T15:20:13;25.0;49
70682;SHT31;58261;48.228;11.686;2022-07-29T15:23:33;25.0;50
70682;SHT31;58261;48.228;11.686;2022-07-29T15:26:53;25.0;50
70682;SHT31;58261;48.228;11.686;2022-07-29T15:30:13;25.0;50
70682;SHT31;58261;48.228;11.686;2022-07-29T15:33:33;25.0;50
70682;SHT31;58261;48.228;11.686;2022-07-29T15:36:53;24.9;50
70682;SHT31;58261;48.228;11.686;2022-07-29T15:40:13;24.9;50
70682;SHT31;58261;48.228;11.686;2022-07-29T15:43:33;24.9;50
70682;SHT31;58261;48.228;11.686;2022-07-29T15:46:53;24.7;53
70682;SHT31;58261;48.228;11.686;2022-07-29T15:50:13;24.7;53
70682;SHT31;58261;48.228;11.686;2022-07-29T15:53:33;24.7;53
70682;SHT31;58261;48.228;11.686;2022-07-29T15:56:53;24.5;60
70682;SHT31;58261;48.228;11.686;2022-07-29T16:00:13;24.5;60
70682;SHT31;58261;48.228;11.686;2022-07-29T16:03:33;24.5;60
70682;SHT31;58261;48.228;11.686;2022-07-29T16:06:53;24.3;62
70682;SHT31;58261;48.228;11.686;2022-07-29T16:10:14;24.3;62
70682;SHT31;58261;48.228;11.686;2022-07-29T16:13:33;24.3;62
70682;SHT31;58261;48.228;11.686;2022-07-29T16:16:53;24.3;62
70682;SHT31;58261;48.228;11.686;2022-07-29T16:20:13;24.2;63
70682;SHT31;58261;48.228;11.686;2022-07-29T16:23:33;24.2;63
70682;SHT31;58261;48.228;11.686;2022-07-29T16:26:53;24.2;63
70682;SHT31;58261;48.228;11.686;2022-07-29T16:30:13;24.0;63
70682;SHT31;58261;48.228;11.686;2022-07-29T16:33:33;24.0;63
70682;SHT31;58261;48.228;11.686;2022-07-29T16:36:53;24.0;63
70682;SHT31;58261;48.228;11.686;2022-07-29T16:40:13;24.0;63
70682;SHT31;58261;48.228;11.686;2022-07-29T16:43:33;24.0;63
70682;SHT31;58261;48.228;11.686;2022-07-29T16:46:53;24.0;63
70682;SHT31;58261;48.228;11.686;2022-07-29T16:50:13;24.0;63
70682;SHT31;58261;48.228;11.686;2022-07-29T16:53:33;24.0;63
70682;SHT31;58261;48.228;11.686;2022-07-29T16:56:53;24.0;63
70682;SHT31;58261;48.228;11.686;2022-07-29T17:00:14;24.0;63
70682;SHT31;58261;48.228;11.686;2022-07-29T17:03:33;23.9;62
70682;SHT31;58261;48.228;11.686;2022-07-29T17:06:53;23.9;62
70682;SHT31;58261;48.228;11.686;2022-07-29T17:10:13;23.9;62
70682;SHT31;58261;48.228;11.686;2022-07-29T17:13:33;23.8;62
70682;SHT31;58261;48.228;11.686;2022-07-29T17:16:54;23.8;62
70682;SHT31;58261;48.228;11.686;2022-07-29T17:20:13;23.8;62
70682;SHT31;58261;48.228;11.686;2022-07-29T17:23:33;23.5;59
70682;SHT31;58261;48.228;11.686;2022-07-29T17:26:53;23.5;59
70682;SHT31;58261;48.228;11.686;2022-07-29T17:30:13;23.5;59
70682;SHT31;58261;48.228;11.686;2022-07-29T17:33:33;23.5;59
70682;SHT31;58261;48.228;11.686;2022-07-29T17:36:53;23.5;60
70682;SHT31;58261;48.228;11.686;2022-07-29T17:40:13;23.5;60
70682;SHT31;58261;48.228;11.686;2022-07-29T17:43:33;23.5;60
70682;SHT31;58261;48.228;11.686;2022-07-29T17:46:53;23.4;58
70682;SHT31;58261;48.228;11.686;2022-07-29T17:50:13;23.4;58
70682;SHT31;58261;48.228;11.686;2022-07-29T17:53:33;23.4;58
70682;SHT31;58261;48.228;11.686;2022-07-29T17:56:53;22.7;60
70682;SHT31;58261;48.228;11.686;2022-07-29T18:00:14;22.7;60
70682;SHT31;58261;48.228;11.686;2022-07-29T18:03:33;22.7;60
70682;SHT31;58261;48.228;11.686;2022-07-29T18:06:53;21.9;62
70682;SHT31;58261;48.228;11.686;2022-07-29T18:10:13;21.9;62
70682;SHT31;58261;48.228;11.686;2022-07-29T18:13:33;21.9;62
70682;SHT31;58261;48.228;11.686;2022-07-29T18:16:53;21.9;62
70682;SHT31;58261;48.228;11.686;2022-07-29T18:20:13;21.4;63
70682;SHT31;58261;48.228;11.686;2022-07-29T18:23:33;21.4;63
70682;SHT31;58261;48.228;11.686;2022-07-29T18:26:53;21.4;63
70682;SHT31;58261;48.228;11.686;2022-07-29T18:30:13;21.0;65
70682;SHT31;58261;48.228;11.686;2022-07-29T18:33:33;21.0;65
70682;SHT31;58261;48.228;11.686;2022-07-29T18:36:53;21.0;65
70682;SHT31;58261;48.228;11.686;2022-07-29T18:40:13;20.7;65
70682;SHT31;58261;48.228;11.686;2022-07-29T18:43:33;20.7;65
70682;SHT31;58261;48.228;11.686;2022-07-29T18:46:53;20.7;65
70682;SHT31;58261;48.228;11.686;2022-07-29T18:50:14;20.6;66
70682;SHT31;58261;48.228;11.686;2022-07-29T18:53:33;20.6;66
70682;SHT31;58261;48.228;11.686;2022-07-29T18:56:53;20.6;66
70682;SHT31;58261;48.228;11.686;2022-07-29T19:00:14;20.6;66
70682;SHT31;58261;48.228;11.686;2022-07-29T19:03:33;20.5;67
70682;SHT31;58261;48.228;11.686;2022-07-29T19:06:53;20.5;67
70682;SHT31;58261;48.228;11.686;2022-07-29T19:10:13;20.5;67
70682;SHT31;58261;48.228;11.686;2022-07-29T19:13:33;20.6;67
70682;SHT31;58261;48.228;11.686;2022-07-29T19:16:53;20.6;67
70682;SHT31;58261;48.228;11.686;2022-07-29T19:20:14;20.6;67
70682;SHT31;58261;48.228;11.686;2022-07-29T19:23:33;20.4;68
70682;SHT31;58261;48.228;11.686;2022-07-29T19:26:53;20.4;68
70682;SHT31;58261;48.228;11.686;2022-07-29T19:30:13;20.4;68
70682;SHT31;58261;48.228;11.686;2022-07-29T19:33:33;20.2;70
70682;SHT31;58261;48.228;11.686;2022-07-29T19:36:53;20.2;70
70682;SHT31;58261;48.228;11.686;2022-07-29T19:40:13;20.2;70
70682;SHT31;58261;48.228;11.686;2022-07-29T19:43:33;20.2;70
70682;SHT31;58261;48.228;11.686;2022-07-29T19:46:53;20.1;71
70682;SHT31;58261;48.228;11.686;2022-07-29T19:50:14;20.1;71
70682;SHT31;58261;48.228;11.686;2022-07-29T19:53:33;20.1;71
70682;SHT31;58261;48.228;11.686;2022-07-29T19:56:53;20.1;72
70682;SHT31;58261;48.228;11.686;2022-07-29T20:00:14;20.1;72
70682;SHT31;58261;48.228;11.686;2022-07-29T20:03:33;20.1;72
70682;SHT31;58261;48.228;11.686;2022-07-29T20:06:53;19.9;74
70682;SHT31;58261;48.228;11.686;2022-07-29T20:10:14;19.9;74
70682;SHT31;58261;48.228;11.686;2022-07-29T20:13:33;19.9;74
70682;SHT31;58261;48.228;11.686;2022-07-29T20:16:53;19.9;74
70682;SHT31;58261;48.228;11.686;2022-07-29T20:20:14;19.8;75
70682;SHT31;58261;48.228;11.686;2022-07-29T20:23:33;19.8;75
70682;SHT31;58261;48.228;11.686;2022-07-29T20:26:53;19.8;75
70682;SHT31;58261;48.228;11.686;2022-07-29T20:30:13;19.7;75
70682;SHT31;58261;48.228;11.686;2022-07-29T20:33:34;19.7;75
70682;SHT31;58261;48.228;11.686;2022-07-29T20:36:54;19.7;75
70682;SHT31;58261;48.228;11.686;2022-07-29T20:40:13;19.7;75
70682;SHT31;58261;48.228;11.686;2022-07-29T20:43:33;19.7;75
70682;SHT31;58261;48.228;11.686;2022-07-29T20:46:54;19.7;75
70682;SHT31;58261;48.228;11.686;2022-07-29T20:50:14;19.7;75
70682;SHT31;58261;48.228;11.686;2022-07-29T20:53:34;19.7;75
70682;SHT31;58261;48.228;11.686;2022-07-29T20:56:54;19.7;75
70682;SHT31;58261;48.228;11.686;2022-07-29T21:00:14;19.7;75
70682;SHT31;58261;48.228;11.686;2022-07-29T21:03:34;19.7;75
70682;SHT31;58261;48.228;11.686;2022-07-29T21:06:54;19.7;75
70682;SHT31;58261;48.228;11.686;2022-07-29T21:10:14;19.7;75
70682;SHT31;58261;48.228;11.686;2022-07-29T21:13:34;19.6;76
70682;SHT31;58261;48.228;11.686;2022-07-29T21:16:54;19.6;76
70682;SHT31;58261;48.228;11.686;2022-07-29T21:20:14;19.6;76
70682;SHT31;58261;48.228;11.686;2022-07-29T21:23:34;19.6;75
70682;SHT31;58261;48.228;11.686;2022-07-29T21:26:54;19.6;75
70682;SHT31;58261;48.228;11.686;2022-07-29T21:30:14;19.6;75
70682;SHT31;58261;48.228;11.686;2022-07-29T21:33:34;19.7;75
70682;SHT31;58261;48.228;11.686;2022-07-29T21:36:54;19.7;75
70682;SHT31;58261;48.228;11.686;2022-07-29T21:40:14;19.7;75
70682;SHT31;58261;48.228;11.686;2022-07-29T21:43:34;19.7;75
70682;SHT31;58261;48.228;11.686;2022-07-29T21:46:54;19.6;75
70682;SHT31;58261;48.228;11.686;2022-07-29T21:50:14;19.6;75
70682;SHT31;58261;48.228;11.686;2022-07-29T21:53:34;19.6;75
70682;SHT31;58261;48.228;11.686;2022-07-29T21:56:54;19.5;75
70682;SHT31;58261;48.228;11.686;2022-07-29T21:59:35;19.5;75
70682;SHT31;58261;48.228;11.686;2022-07-29T22:02:55;19.5;75
70682;SHT31;58261;48.228;11.686;2022-07-29T22:06:15;19.5;75
70682;SHT31;58261;48.228;11.686;2022-07-29T22:09:35;19.5;75
70682;SHT31;58261;48.228;11.686;2022-07-29T22:12:56;19.5;75
70682;SHT31;58261;48.228;11.686;2022-07-29T22:16:15;19.5;75
70682;SHT31;58261;48.228;11.686;2022-07-29T22:19:35;19.4;76
70682;SHT31;58261;48.228;11.686;2022-07-29T22:22:55;19.4;76
70682;SHT31;58261;48.228;11.686;2022-07-29T22:26:15;19.4;76
70682;SHT31;58261;48.228;11.686;2022-07-29T22:29:35;19.3;77
70682;SHT31;58261;48.228;11.686;2022-07-29T22:32:55;19.3;77
70682;SHT31;58261;48.228;11.686;2022-07-29T22:36:15;19.3;77
70682;SHT31;58261;48.228;11.686;2022-07-29T22:39:35;19.3;77
70682;SHT31;58261;48.228;11.686;2022-07-29T22:42:55;19.3;77
70682;SHT31;58261;48.228;11.686;2022-07-29T22:46:15;19.3;77
70682;SHT31;58261;48.228;11.686;2022-07-29T22:49:35;19.3;77
70682;SHT31;58261;48.228;11.686;2022-07-29T22:52:55;19.3;77
70682;SHT31;58261;48.228;11.686;2022-07-29T22:56:16;19.3;77
70682;SHT31;58261;48.228;11.686;2022-07-29T22:59:35;19.3;77
70682;SHT31;58261;48.228;11.686;2022-07-29T23:02:55;19.4;77